FARPK LFLL-LFBO
Flight info
| Callsign | FARPK |
|---|---|
| Flight time | 0h 44m |
| Altitude | 29000 |
| Route | REPSI DCT LERGA DCT MINSO DCT NARAK |
| Aircraft | C750/M-SBDE3FGHRWXY/S |
Departure
| Time | 2026-05-05 19:37 |
|---|---|
| Airport | Lyon Saint-Exupéry Airport (LFLL) |
Arrival
| Time | 2026-05-05 20:21 |
|---|---|
| Airport | Toulouse-Blagnac Airport (LFBO) |
| Time | Latitude | Longitude | Altitude | Speed | Heading |
|---|---|---|---|---|---|
| 2026-05-05 19:12 | 45.72882 | 5.08193 | 784 ft | 0 kts | 355° |
| 2026-05-05 19:32 | 45.72883 | 5.08193 | 784 ft | 1 kts | 355° |
| 2026-05-05 19:32 | 45.72918 | 5.08232 | 784 ft | 13 kts | 82° |
| 2026-05-05 19:32 | 45.72931 | 5.08376 | 786 ft | 14 kts | 82° |
| 2026-05-05 19:32 | 45.72941 | 5.08500 | 787 ft | 11 kts | 84° |
| 2026-05-05 19:33 | 45.72947 | 5.08597 | 788 ft | 8 kts | 85° |
| 2026-05-05 19:33 | 45.72951 | 5.08656 | 789 ft | 0 kts | 85° |
| 2026-05-05 19:36 | 45.72955 | 5.08733 | 788 ft | 13 kts | 85° |
| 2026-05-05 19:36 | 45.72917 | 5.08809 | 789 ft | 2 kts | 174° |
| 2026-05-05 19:36 | 45.72915 | 5.08810 | 789 ft | 4 kts | 174° |
| 2026-05-05 19:36 | 45.72617 | 5.08845 | 788 ft | 97 kts | 175° |
| 2026-05-05 19:37 | 45.71732 | 5.08940 | 1006 ft | 139 kts | 175° |
| 2026-05-05 19:37 | 45.70725 | 5.09047 | 1553 ft | 155 kts | 176° |
| 2026-05-05 19:37 | 45.69568 | 5.09195 | 1998 ft | 176 kts | 175° |
| 2026-05-05 19:37 | 45.68364 | 5.09361 | 2830 ft | 171 kts | 177° |
| 2026-05-05 19:38 | 45.67195 | 5.09506 | 3680 ft | 168 kts | 178° |
| 2026-05-05 19:38 | 45.66029 | 5.09644 | 4507 ft | 169 kts | 179° |
| 2026-05-05 19:38 | 45.64861 | 5.09785 | 5310 ft | 167 kts | 179° |
| 2026-05-05 19:38 | 45.63705 | 5.09925 | 6100 ft | 167 kts | 179° |
| 2026-05-05 19:39 | 45.62546 | 5.10060 | 6842 ft | 167 kts | 179° |
| 2026-05-05 19:39 | 45.61394 | 5.09878 | 7568 ft | 168 kts | 197° |
| 2026-05-05 19:39 | 45.60316 | 5.09231 | 8360 ft | 169 kts | 211° |
| 2026-05-05 19:39 | 45.59379 | 5.08142 | 9114 ft | 180 kts | 226° |
| 2026-05-05 19:40 | 45.58677 | 5.06626 | 9906 ft | 187 kts | 244° |
| 2026-05-05 19:40 | 45.58304 | 5.04830 | 10664 ft | 190 kts | 255° |
| 2026-05-05 19:40 | 45.58013 | 5.02998 | 11451 ft | 191 kts | 254° |
| 2026-05-05 19:40 | 45.57704 | 5.01139 | 12256 ft | 191 kts | 254° |
| 2026-05-05 19:41 | 45.57406 | 4.99287 | 13058 ft | 192 kts | 254° |
| 2026-05-05 19:41 | 45.57108 | 4.97426 | 13811 ft | 194 kts | 254° |
| 2026-05-05 19:41 | 45.56781 | 4.95412 | 13910 ft | 226 kts | 254° |
| 2026-05-05 19:41 | 45.56402 | 4.93076 | 14020 ft | 256 kts | 255° |
| 2026-05-05 19:42 | 45.55985 | 4.90478 | 14191 ft | 282 kts | 255° |
| 2026-05-05 19:42 | 45.55587 | 4.87649 | 14265 ft | 309 kts | 261° |
| 2026-05-05 19:42 | 45.55423 | 4.84466 | 14318 ft | 334 kts | 264° |
| 2026-05-05 19:42 | 45.55265 | 4.81052 | 14386 ft | 355 kts | 264° |
| 2026-05-05 19:43 | 45.55071 | 4.77516 | 14970 ft | 357 kts | 263° |
| 2026-05-05 19:43 | 45.54868 | 4.73973 | 15575 ft | 361 kts | 263° |
| 2026-05-05 19:43 | 45.54671 | 4.70345 | 16194 ft | 364 kts | 263° |
| 2026-05-05 19:43 | 45.54478 | 4.66729 | 16824 ft | 368 kts | 263° |
| 2026-05-05 19:44 | 45.54279 | 4.63119 | 17452 ft | 372 kts | 263° |
| 2026-05-05 19:44 | 45.54068 | 4.59375 | 18129 ft | 375 kts | 263° |
| 2026-05-05 19:44 | 45.53863 | 4.55704 | 18722 ft | 379 kts | 263° |
| 2026-05-05 19:44 | 45.53649 | 4.51902 | 18927 ft | 394 kts | 263° |
| 2026-05-05 19:45 | 45.53422 | 4.47921 | 19059 ft | 408 kts | 263° |
| 2026-05-05 19:45 | 45.53204 | 4.43993 | 20314 ft | 387 kts | 263° |
| 2026-05-05 19:45 | 45.52987 | 4.40148 | 20975 ft | 391 kts | 262° |
| 2026-05-05 19:45 | 45.52757 | 4.36266 | 21513 ft | 395 kts | 262° |
| 2026-05-05 19:46 | 45.52518 | 4.32338 | 22107 ft | 398 kts | 261° |
| 2026-05-05 19:46 | 45.51914 | 4.28489 | 22611 ft | 398 kts | 249° |
| 2026-05-05 19:46 | 45.50811 | 4.24881 | 23241 ft | 397 kts | 239° |
| 2026-05-05 19:46 | 45.49284 | 4.21605 | 23754 ft | 398 kts | 232° |
| 2026-05-05 19:47 | 45.47664 | 4.18402 | 24311 ft | 399 kts | 232° |
| 2026-05-05 19:47 | 45.46048 | 4.15166 | 24861 ft | 400 kts | 232° |
| 2026-05-05 19:47 | 45.44432 | 4.11936 | 25405 ft | 402 kts | 232° |
| 2026-05-05 19:47 | 45.42797 | 4.08698 | 25965 ft | 403 kts | 232° |
| 2026-05-05 19:48 | 45.41155 | 4.05451 | 26512 ft | 405 kts | 232° |
| 2026-05-05 19:48 | 45.39513 | 4.02193 | 27066 ft | 406 kts | 232° |
| 2026-05-05 19:48 | 45.37863 | 3.98921 | 27636 ft | 408 kts | 232° |
| 2026-05-05 19:48 | 45.36202 | 3.95638 | 28201 ft | 410 kts | 232° |
| 2026-05-05 19:49 | 45.34535 | 3.92349 | 28768 ft | 411 kts | 232° |
| 2026-05-05 19:49 | 45.33424 | 3.90159 | 28914 ft | 418 kts | 232° |
| 2026-05-05 19:49 | 45.31122 | 3.85626 | 28921 ft | 435 kts | 232° |
| 2026-05-05 19:49 | 45.29300 | 3.82040 | 28920 ft | 447 kts | 232° |
| 2026-05-05 19:50 | 45.27457 | 3.78414 | 28923 ft | 458 kts | 232° |
| 2026-05-05 19:50 | 45.23717 | 3.70910 | 28929 ft | 469 kts | 233° |
| 2026-05-05 19:51 | 45.19994 | 3.63367 | 28930 ft | 471 kts | 232° |
| 2026-05-05 19:51 | 45.16241 | 3.55757 | 28928 ft | 472 kts | 232° |
| 2026-05-05 19:52 | 45.12372 | 3.48291 | 28916 ft | 464 kts | 229° |
| 2026-05-05 19:52 | 45.08346 | 3.41121 | 28914 ft | 468 kts | 230° |
| 2026-05-05 19:53 | 45.04442 | 3.33761 | 28923 ft | 466 kts | 230° |
| 2026-05-05 19:53 | 45.01114 | 3.27776 | 28922 ft | 467 kts | 230° |
| 2026-05-05 19:54 | 44.97172 | 3.20488 | 28923 ft | 467 kts | 230° |
| 2026-05-05 19:54 | 44.93203 | 3.13280 | 28925 ft | 462 kts | 229° |
| 2026-05-05 19:55 | 44.89257 | 3.06078 | 28927 ft | 464 kts | 230° |
| 2026-05-05 19:55 | 44.85262 | 2.98828 | 28937 ft | 473 kts | 230° |
| 2026-05-05 19:56 | 44.81225 | 2.91511 | 28946 ft | 473 kts | 230° |
| 2026-05-05 19:56 | 44.77177 | 2.84192 | 28948 ft | 473 kts | 230° |
| 2026-05-05 19:57 | 44.73123 | 2.76886 | 28946 ft | 474 kts | 230° |
| 2026-05-05 19:57 | 44.69068 | 2.69594 | 28944 ft | 474 kts | 230° |
| 2026-05-05 19:58 | 44.65054 | 2.62393 | 28361 ft | 450 kts | 230° |
| 2026-05-05 19:58 | 44.63178 | 2.59027 | 27778 ft | 426 kts | 230° |
| 2026-05-05 19:58 | 44.61380 | 2.55815 | 27225 ft | 411 kts | 230° |
| 2026-05-05 19:58 | 44.59629 | 2.52693 | 26701 ft | 406 kts | 230° |
| 2026-05-05 19:59 | 44.57880 | 2.49576 | 26163 ft | 408 kts | 230° |
| 2026-05-05 19:59 | 44.56123 | 2.46443 | 25627 ft | 408 kts | 230° |
| 2026-05-05 19:59 | 44.54373 | 2.43324 | 25088 ft | 406 kts | 229° |
| 2026-05-05 19:59 | 44.52632 | 2.40227 | 24556 ft | 404 kts | 229° |
| 2026-05-05 20:00 | 44.50901 | 2.37153 | 24027 ft | 401 kts | 229° |
| 2026-05-05 20:00 | 44.49177 | 2.34096 | 23499 ft | 398 kts | 229° |
| 2026-05-05 20:00 | 44.47467 | 2.31064 | 22941 ft | 394 kts | 229° |
| 2026-05-05 20:00 | 44.45774 | 2.28064 | 22441 ft | 391 kts | 229° |
| 2026-05-05 20:01 | 44.44090 | 2.25087 | 21915 ft | 388 kts | 229° |
| 2026-05-05 20:01 | 44.42419 | 2.22135 | 21405 ft | 385 kts | 229° |
| 2026-05-05 20:01 | 44.40764 | 2.19211 | 20901 ft | 382 kts | 229° |
| 2026-05-05 20:01 | 44.39125 | 2.16319 | 20401 ft | 378 kts | 229° |
| 2026-05-05 20:02 | 44.37497 | 2.13453 | 19911 ft | 375 kts | 230° |
| 2026-05-05 20:02 | 44.35885 | 2.10614 | 19415 ft | 372 kts | 230° |
| 2026-05-05 20:02 | 44.34283 | 2.07797 | 18936 ft | 368 kts | 230° |
| 2026-05-05 20:02 | 44.32696 | 2.05009 | 18454 ft | 365 kts | 230° |
| 2026-05-05 20:03 | 44.31120 | 2.02246 | 17947 ft | 362 kts | 230° |
| 2026-05-05 20:03 | 44.29549 | 1.99492 | 17467 ft | 361 kts | 230° |
| 2026-05-05 20:03 | 44.28000 | 1.96776 | 16997 ft | 360 kts | 230° |
| 2026-05-05 20:03 | 44.26444 | 1.94053 | 16525 ft | 358 kts | 231° |
| 2026-05-05 20:04 | 44.24895 | 1.91345 | 16058 ft | 357 kts | 231° |
| 2026-05-05 20:04 | 44.23340 | 1.88629 | 15586 ft | 358 kts | 231° |
| 2026-05-05 20:04 | 44.21792 | 1.85928 | 15116 ft | 356 kts | 231° |
| 2026-05-05 20:04 | 44.20250 | 1.83238 | 14653 ft | 353 kts | 231° |
| 2026-05-05 20:05 | 44.18719 | 1.80573 | 14187 ft | 352 kts | 231° |
| 2026-05-05 20:05 | 44.16971 | 1.78218 | 13618 ft | 353 kts | 214° |
| 2026-05-05 20:05 | 44.14701 | 1.76881 | 13023 ft | 350 kts | 197° |
| 2026-05-05 20:05 | 44.12340 | 1.76273 | 12555 ft | 349 kts | 191° |
| 2026-05-05 20:06 | 44.09927 | 1.75729 | 12116 ft | 362 kts | 191° |
| 2026-05-05 20:06 | 44.07355 | 1.75055 | 11978 ft | 381 kts | 192° |
| 2026-05-05 20:06 | 44.04887 | 1.74403 | 11973 ft | 343 kts | 192° |
| 2026-05-05 20:06 | 44.02645 | 1.73846 | 11709 ft | 316 kts | 192° |
| 2026-05-05 20:07 | 44.00477 | 1.73303 | 10484 ft | 312 kts | 192° |
| 2026-05-05 20:07 | 43.98431 | 1.72780 | 9719 ft | 287 kts | 193° |
| 2026-05-05 20:07 | 43.96525 | 1.72294 | 8685 ft | 274 kts | 193° |
| 2026-05-05 20:07 | 43.94619 | 1.71806 | 7574 ft | 285 kts | 192° |
| 2026-05-05 20:08 | 43.92664 | 1.71309 | 6979 ft | 281 kts | 192° |
| 2026-05-05 20:08 | 43.90808 | 1.70843 | 6965 ft | 265 kts | 192° |
| 2026-05-05 20:08 | 43.88980 | 1.70378 | 6975 ft | 270 kts | 192° |
| 2026-05-05 20:08 | 43.87122 | 1.69904 | 6984 ft | 272 kts | 192° |
| 2026-05-05 20:09 | 43.85258 | 1.69432 | 6980 ft | 273 kts | 192° |
| 2026-05-05 20:09 | 43.83391 | 1.68960 | 6982 ft | 274 kts | 192° |
| 2026-05-05 20:09 | 43.81515 | 1.68486 | 6980 ft | 274 kts | 192° |
| 2026-05-05 20:09 | 43.79636 | 1.68011 | 6980 ft | 274 kts | 192° |
| 2026-05-05 20:10 | 43.77754 | 1.67535 | 6975 ft | 274 kts | 192° |
| 2026-05-05 20:10 | 43.75872 | 1.67060 | 6974 ft | 274 kts | 192° |
| 2026-05-05 20:10 | 43.74029 | 1.66597 | 6590 ft | 266 kts | 192° |
| 2026-05-05 20:10 | 43.72278 | 1.66158 | 6430 ft | 249 kts | 192° |
| 2026-05-05 20:11 | 43.70569 | 1.65724 | 5850 ft | 251 kts | 193° |
| 2026-05-05 20:11 | 43.68854 | 1.65290 | 5343 ft | 251 kts | 193° |
| 2026-05-05 20:11 | 43.67098 | 1.64848 | 4992 ft | 254 kts | 193° |
| 2026-05-05 20:11 | 43.65402 | 1.64425 | 4996 ft | 245 kts | 193° |
| 2026-05-05 20:12 | 43.63726 | 1.64002 | 4997 ft | 247 kts | 193° |
| 2026-05-05 20:12 | 43.62032 | 1.63580 | 5002 ft | 247 kts | 192° |
| 2026-05-05 20:12 | 43.60308 | 1.63337 | 4996 ft | 250 kts | 189° |
| 2026-05-05 20:12 | 43.58587 | 1.63019 | 5010 ft | 249 kts | 191° |
| 2026-05-05 20:13 | 43.56863 | 1.62701 | 5015 ft | 250 kts | 190° |
| 2026-05-05 20:13 | 43.55155 | 1.62423 | 5018 ft | 251 kts | 189° |
| 2026-05-05 20:13 | 43.53399 | 1.62141 | 4981 ft | 252 kts | 189° |
| 2026-05-05 20:13 | 43.51654 | 1.61852 | 4826 ft | 252 kts | 189° |
| 2026-05-05 20:14 | 43.49974 | 1.61495 | 4600 ft | 237 kts | 198° |
| 2026-05-05 20:14 | 43.48623 | 1.60381 | 4339 ft | 220 kts | 228° |
| 2026-05-05 20:14 | 43.47838 | 1.58701 | 4182 ft | 199 kts | 252° |
| 2026-05-05 20:14 | 43.47530 | 1.56957 | 4084 ft | 181 kts | 260° |
| 2026-05-05 20:15 | 43.47252 | 1.55280 | 3938 ft | 179 kts | 260° |
| 2026-05-05 20:15 | 43.47181 | 1.53568 | 3758 ft | 179 kts | 282° |
| 2026-05-05 20:15 | 43.47709 | 1.52129 | 3606 ft | 164 kts | 309° |
| 2026-05-05 20:15 | 43.48555 | 1.51104 | 3490 ft | 161 kts | 319° |
| 2026-05-05 20:16 | 43.49438 | 1.50140 | 3351 ft | 162 kts | 320° |
| 2026-05-05 20:16 | 43.50331 | 1.49209 | 3210 ft | 164 kts | 320° |
| 2026-05-05 20:16 | 43.51210 | 1.48300 | 3045 ft | 155 kts | 320° |
| 2026-05-05 20:16 | 43.51994 | 1.47490 | 2958 ft | 126 kts | 320° |
| 2026-05-05 20:17 | 43.52674 | 1.46789 | 2813 ft | 120 kts | 319° |
| 2026-05-05 20:17 | 43.53343 | 1.46094 | 2653 ft | 120 kts | 319° |
| 2026-05-05 20:17 | 43.54018 | 1.45393 | 2497 ft | 123 kts | 319° |
| 2026-05-05 20:17 | 43.54700 | 1.44685 | 2335 ft | 123 kts | 319° |
| 2026-05-05 20:18 | 43.55385 | 1.43976 | 2175 ft | 124 kts | 319° |
| 2026-05-05 20:18 | 43.56067 | 1.43267 | 1996 ft | 121 kts | 319° |
| 2026-05-05 20:18 | 43.56739 | 1.42570 | 1834 ft | 121 kts | 319° |
| 2026-05-05 20:18 | 43.57410 | 1.41872 | 1667 ft | 121 kts | 319° |
| 2026-05-05 20:19 | 43.58077 | 1.41169 | 1499 ft | 121 kts | 319° |
| 2026-05-05 20:19 | 43.58764 | 1.40443 | 1346 ft | 127 kts | 319° |
| 2026-05-05 20:19 | 43.59480 | 1.39705 | 1135 ft | 129 kts | 320° |
| 2026-05-05 20:19 | 43.60210 | 1.38949 | 959 ft | 133 kts | 321° |
| 2026-05-05 20:20 | 43.60955 | 1.38178 | 789 ft | 134 kts | 321° |
| 2026-05-05 20:20 | 43.61708 | 1.37401 | 593 ft | 135 kts | 320° |
| 2026-05-05 20:20 | 43.62439 | 1.36643 | 495 ft | 121 kts | 321° |
| 2026-05-05 20:20 | 43.63005 | 1.36052 | 485 ft | 76 kts | 324° |
| 2026-05-05 20:21 | 43.63349 | 1.35700 | 486 ft | 56 kts | 323° |
| 2026-05-05 20:21 | 43.63545 | 1.35499 | 490 ft | 14 kts | 339° |
| 2026-05-05 20:21 | 43.63598 | 1.35535 | 490 ft | 8 kts | 52° |
| 2026-05-05 20:21 | 43.63630 | 1.35592 | 487 ft | 7 kts | 52° |
| 2026-05-05 20:22 | 43.63659 | 1.35645 | 490 ft | 7 kts | 54° |
| 2026-05-05 20:22 | 43.63665 | 1.35658 | 488 ft | 0 kts | 53° |
| 2026-05-05 20:23 | 43.63675 | 1.35676 | 490 ft | 7 kts | 53° |
| 2026-05-05 20:23 | 43.63725 | 1.35767 | 490 ft | 17 kts | 53° |
| 2026-05-05 20:23 | 43.63804 | 1.35911 | 490 ft | 19 kts | 53° |
| 2026-05-05 20:23 | 43.63762 | 1.36048 | 490 ft | 18 kts | 142° |
| 2026-05-05 20:24 | 43.63662 | 1.36153 | 490 ft | 18 kts | 143° |
| 2026-05-05 20:24 | 43.63566 | 1.36253 | 490 ft | 16 kts | 142° |
| 2026-05-05 20:24 | 43.63473 | 1.36350 | 490 ft | 17 kts | 144° |
| 2026-05-05 20:24 | 43.63374 | 1.36453 | 490 ft | 18 kts | 142° |
| 2026-05-05 20:25 | 43.63269 | 1.36559 | 490 ft | 19 kts | 142° |
| 2026-05-05 20:25 | 43.63163 | 1.36669 | 488 ft | 19 kts | 142° |
| 2026-05-05 20:25 | 43.63061 | 1.36776 | 490 ft | 18 kts | 143° |
| 2026-05-05 20:25 | 43.62964 | 1.36876 | 490 ft | 17 kts | 142° |
| 2026-05-05 20:26 | 43.62874 | 1.36971 | 487 ft | 16 kts | 144° |
| 2026-05-05 20:26 | 43.62789 | 1.37058 | 490 ft | 15 kts | 143° |
| 2026-05-05 20:26 | 43.62710 | 1.37140 | 490 ft | 14 kts | 143° |
| 2026-05-05 20:26 | 43.62635 | 1.37218 | 486 ft | 14 kts | 143° |
| 2026-05-05 20:27 | 43.62554 | 1.37302 | 490 ft | 15 kts | 143° |
| 2026-05-05 20:27 | 43.62464 | 1.37396 | 490 ft | 17 kts | 143° |
| 2026-05-05 20:27 | 43.62366 | 1.37498 | 490 ft | 18 kts | 142° |
| 2026-05-05 20:27 | 43.62290 | 1.37578 | 490 ft | 11 kts | 143° |
| 2026-05-05 20:28 | 43.62223 | 1.37646 | 490 ft | 13 kts | 143° |
| 2026-05-05 20:28 | 43.62149 | 1.37725 | 490 ft | 14 kts | 144° |
| 2026-05-05 20:28 | 43.62065 | 1.37810 | 487 ft | 16 kts | 143° |
| 2026-05-05 20:28 | 43.61974 | 1.37905 | 490 ft | 17 kts | 143° |
| 2026-05-05 20:29 | 43.61873 | 1.38009 | 490 ft | 19 kts | 143° |
| 2026-05-05 20:29 | 43.61827 | 1.38062 | 490 ft | 0 kts | 90° |
| 2026-05-05 20:29 | 43.61828 | 1.38076 | 488 ft | 2 kts | 84° |
| 2026-05-05 20:29 | 43.61830 | 1.38077 | 488 ft | 1 kts | 58° |
| 2026-05-05 20:30 | 43.61883 | 1.38121 | 490 ft | 14 kts | 4° |
| 2026-05-05 20:30 | 43.61963 | 1.38075 | 490 ft | 10 kts | 302° |
| 2026-05-05 20:30 | 43.62017 | 1.38044 | 490 ft | 8 kts | 11° |
| 2026-05-05 20:30 | 43.62065 | 1.38073 | 489 ft | 7 kts | 26° |
| 2026-05-05 20:31 | 43.62108 | 1.38099 | 490 ft | 6 kts | 14° |
| 2026-05-05 20:31 | 43.62139 | 1.38088 | 490 ft | 0 kts | 325° |
| 2026-05-05 20:31 | 43.62150 | 1.38076 | 490 ft | 5 kts | 316° |
| 2026-05-05 20:31 | 43.62146 | 1.38040 | 490 ft | 2 kts | 234° |
| 2026-05-05 20:32 | 43.62140 | 1.38028 | 483 ft | 0 kts | 232° |